sensor_id;sensor_type;location;lat;lon;timestamp;pressure;altitude;pressure_sealevel;temperature;humidity
39954;BME280;25631;51.516;-0.470;2023-02-15T00:01:30;102452.12;;;2.84;38.32
39954;BME280;25631;51.516;-0.470;2023-02-15T00:04:09;102451.35;;;3.24;38.12
39954;BME280;25631;51.516;-0.470;2023-02-15T00:06:45;102445.82;;;2.97;38.17
39954;BME280;25631;51.516;-0.470;2023-02-15T00:09:22;102443.40;;;3.06;38.27
39954;BME280;25631;51.516;-0.470;2023-02-15T00:11:59;102441.97;;;3.01;38.32
39954;BME280;25631;51.516;-0.470;2023-02-15T00:14:35;102436.24;;;2.90;38.29
39954;BME280;25631;51.516;-0.470;2023-02-15T00:17:12;102424.57;;;2.86;38.13
39954;BME280;25631;51.516;-0.470;2023-02-15T00:19:49;102420.03;;;3.02;38.00
39954;BME280;25631;51.516;-0.470;2023-02-15T00:22:25;102415.23;;;3.06;37.94
39954;BME280;25631;51.516;-0.470;2023-02-15T00:25:02;102412.06;;;3.01;37.89
39954;BME280;25631;51.516;-0.470;2023-02-15T00:27:38;102406.46;;;3.00;37.75
39954;BME280;25631;51.516;-0.470;2023-02-15T00:30:16;102406.38;;;2.91;37.92
39954;BME280;25631;51.516;-0.470;2023-02-15T00:32:52;102405.43;;;2.93;37.92
39954;BME280;25631;51.516;-0.470;2023-02-15T00:35:29;102405.78;;;2.71;37.96
39954;BME280;25631;51.516;-0.470;2023-02-15T00:38:06;102407.29;;;2.75;37.90
39954;BME280;25631;51.516;-0.470;2023-02-15T00:40:42;102404.09;;;2.66;37.92
39954;BME280;25631;51.516;-0.470;2023-02-15T00:43:19;102399.87;;;2.64;38.00
39954;BME280;25631;51.516;-0.470;2023-02-15T00:45:56;102398.17;;;2.80;38.07
39954;BME280;25631;51.516;-0.470;2023-02-15T00:48:33;102393.12;;;2.99;38.09
39954;BME280;25631;51.516;-0.470;2023-02-15T00:51:09;102389.88;;;2.63;38.04
39954;BME280;25631;51.516;-0.470;2023-02-15T00:53:46;102389.99;;;2.87;38.04
39954;BME280;25631;51.516;-0.470;2023-02-15T00:56:23;102384.27;;;2.50;38.09
39954;BME280;25631;51.516;-0.470;2023-02-15T00:58:59;102384.70;;;2.58;38.05
39954;BME280;25631;51.516;-0.470;2023-02-15T01:01:36;102384.03;;;2.87;38.10
39954;BME280;25631;51.516;-0.470;2023-02-15T01:04:13;102378.59;;;2.89;38.08
39954;BME280;25631;51.516;-0.470;2023-02-15T01:06:49;102371.61;;;2.72;37.92
39954;BME280;25631;51.516;-0.470;2023-02-15T01:09:26;102369.48;;;2.47;37.90
39954;BME280;25631;51.516;-0.470;2023-02-15T01:12:03;102365.79;;;2.74;37.90
39954;BME280;25631;51.516;-0.470;2023-02-15T01:14:40;102364.88;;;2.93;38.00
39954;BME280;25631;51.516;-0.470;2023-02-15T01:17:17;102358.27;;;2.52;38.02
39954;BME280;25631;51.516;-0.470;2023-02-15T01:19:53;102349.14;;;2.65;38.03
39954;BME280;25631;51.516;-0.470;2023-02-15T01:22:30;102341.58;;;2.78;38.00
39954;BME280;25631;51.516;-0.470;2023-02-15T01:25:07;102342.72;;;2.85;38.01
39954;BME280;25631;51.516;-0.470;2023-02-15T01:27:43;102337.74;;;2.70;37.99
39954;BME280;25631;51.516;-0.470;2023-02-15T01:30:20;102336.87;;;2.45;38.07
39954;BME280;25631;51.516;-0.470;2023-02-15T01:32:57;102330.43;;;2.88;38.02
39954;BME280;25631;51.516;-0.470;2023-02-15T01:35:36;102323.37;;;2.37;38.03
39954;BME280;25631;51.516;-0.470;2023-02-15T01:38:13;102323.06;;;2.67;38.09
39954;BME280;25631;51.516;-0.470;2023-02-15T01:40:51;102316.89;;;2.51;38.14
39954;BME280;25631;51.516;-0.470;2023-02-15T01:43:40;102314.59;;;2.64;38.05
39954;BME280;25631;51.516;-0.470;2023-02-15T01:46:18;102311.89;;;2.52;37.95
39954;BME280;25631;51.516;-0.470;2023-02-15T01:49:02;102306.15;;;2.71;37.90
39954;BME280;25631;51.516;-0.470;2023-02-15T01:51:41;102302.83;;;2.50;38.02
39954;BME280;25631;51.516;-0.470;2023-02-15T01:54:22;102299.71;;;2.86;37.90
39954;BME280;25631;51.516;-0.470;2023-02-15T01:57:01;102296.82;;;2.20;37.95
39954;BME280;25631;51.516;-0.470;2023-02-15T01:59:40;102297.67;;;2.29;37.95
39954;BME280;25631;51.516;-0.470;2023-02-15T02:02:19;102293.83;;;2.40;37.84
39954;BME280;25631;51.516;-0.470;2023-02-15T02:04:59;102288.97;;;2.55;37.80
39954;BME280;25631;51.516;-0.470;2023-02-15T02:07:38;102290.15;;;2.39;37.84
39954;BME280;25631;51.516;-0.470;2023-02-15T02:10:18;102293.52;;;2.42;37.86
39954;BME280;25631;51.516;-0.470;2023-02-15T02:12:58;102289.54;;;2.57;37.88
39954;BME280;25631;51.516;-0.470;2023-02-15T02:15:40;102292.80;;;2.69;37.67
39954;BME280;25631;51.516;-0.470;2023-02-15T02:18:33;102292.38;;;2.13;37.67
39954;BME280;25631;51.516;-0.470;2023-02-15T02:21:29;102287.36;;;2.07;37.61
39954;BME280;25631;51.516;-0.470;2023-02-15T02:24:32;102284.29;;;2.41;37.72
39954;BME280;25631;51.516;-0.470;2023-02-15T02:27:23;102287.64;;;2.25;37.85
39954;BME280;25631;51.516;-0.470;2023-02-15T02:30:20;102287.22;;;2.42;37.78
39954;BME280;25631;51.516;-0.470;2023-02-15T02:33:14;102284.65;;;2.25;37.72
39954;BME280;25631;51.516;-0.470;2023-02-15T02:36:02;102282.54;;;2.26;37.71
39954;BME280;25631;51.516;-0.470;2023-02-15T02:38:51;102286.80;;;2.13;37.81
39954;BME280;25631;51.516;-0.470;2023-02-15T02:41:34;102287.74;;;2.28;37.96
39954;BME280;25631;51.516;-0.470;2023-02-15T02:44:16;102284.02;;;2.36;37.98
39954;BME280;25631;51.516;-0.470;2023-02-15T02:47:01;102276.11;;;2.21;38.03
39954;BME280;25631;51.516;-0.470;2023-02-15T02:49:42;102275.36;;;2.07;38.02
39954;BME280;25631;51.516;-0.470;2023-02-15T02:52:38;102270.51;;;2.02;38.00
39954;BME280;25631;51.516;-0.470;2023-02-15T02:55:18;102269.32;;;2.14;38.00
39954;BME280;25631;51.516;-0.470;2023-02-15T02:58:01;102265.52;;;2.13;38.06
39954;BME280;25631;51.516;-0.470;2023-02-15T03:00:45;102264.72;;;2.30;38.04
39954;BME280;25631;51.516;-0.470;2023-02-15T03:03:27;102259.70;;;2.20;37.98
39954;BME280;25631;51.516;-0.470;2023-02-15T03:06:09;102257.42;;;1.99;37.92
39954;BME280;25631;51.516;-0.470;2023-02-15T03:08:50;102254.34;;;1.98;37.84
39954;BME280;25631;51.516;-0.470;2023-02-15T03:11:27;102247.13;;;1.79;37.79
39954;BME280;25631;51.516;-0.470;2023-02-15T03:14:04;102246.12;;;1.84;37.84
39954;BME280;25631;51.516;-0.470;2023-02-15T03:16:42;102242.08;;;1.89;37.97
39954;BME280;25631;51.516;-0.470;2023-02-15T03:19:23;102243.46;;;1.88;38.02
39954;BME280;25631;51.516;-0.470;2023-02-15T03:22:04;102241.08;;;1.82;37.83
39954;BME280;25631;51.516;-0.470;2023-02-15T03:24:45;102236.18;;;1.84;37.82
39954;BME280;25631;51.516;-0.470;2023-02-15T03:27:25;102232.25;;;1.66;37.86
39954;BME280;25631;51.516;-0.470;2023-02-15T03:30:05;102227.58;;;2.01;37.95
39954;BME280;25631;51.516;-0.470;2023-02-15T03:32:43;102225.89;;;1.78;38.09
39954;BME280;25631;51.516;-0.470;2023-02-15T03:35:24;102218.82;;;1.62;38.08
39954;BME280;25631;51.516;-0.470;2023-02-15T03:38:06;102219.43;;;1.66;38.02
39954;BME280;25631;51.516;-0.470;2023-02-15T03:40:45;102221.29;;;1.58;38.05
39954;BME280;25631;51.516;-0.470;2023-02-15T03:43:29;102213.05;;;1.79;37.94
39954;BME280;25631;51.516;-0.470;2023-02-15T03:46:15;102209.89;;;1.40;38.05
39954;BME280;25631;51.516;-0.470;2023-02-15T03:48:58;102211.21;;;1.73;38.25
39954;BME280;25631;51.516;-0.470;2023-02-15T03:51:39;102213.39;;;1.60;38.16
39954;BME280;25631;51.516;-0.470;2023-02-15T03:54:21;102207.26;;;1.74;38.16
39954;BME280;25631;51.516;-0.470;2023-02-15T03:56:58;102202.24;;;1.61;38.14
39954;BME280;25631;51.516;-0.470;2023-02-15T03:59:35;102198.46;;;1.52;38.09
39954;BME280;25631;51.516;-0.470;2023-02-15T04:02:17;102193.69;;;1.53;38.08
39954;BME280;25631;51.516;-0.470;2023-02-15T04:04:56;102193.71;;;1.46;38.17
39954;BME280;25631;51.516;-0.470;2023-02-15T04:07:32;102189.95;;;1.82;38.19
39954;BME280;25631;51.516;-0.470;2023-02-15T04:10:09;102188.36;;;1.80;38.19
39954;BME280;25631;51.516;-0.470;2023-02-15T04:12:46;102184.63;;;1.78;38.12
39954;BME280;25631;51.516;-0.470;2023-02-15T04:15:23;102183.15;;;1.76;38.11
39954;BME280;25631;51.516;-0.470;2023-02-15T04:18:02;102184.29;;;1.51;38.18
39954;BME280;25631;51.516;-0.470;2023-02-15T04:20:39;102186.87;;;1.50;38.07
39954;BME280;25631;51.516;-0.470;2023-02-15T04:23:15;102188.44;;;1.41;38.02
39954;BME280;25631;51.516;-0.470;2023-02-15T04:25:52;102187.83;;;1.59;37.93
39954;BME280;25631;51.516;-0.470;2023-02-15T04:28:28;102185.00;;;1.71;38.00
39954;BME280;25631;51.516;-0.470;2023-02-15T04:31:05;102184.09;;;1.58;38.21
39954;BME280;25631;51.516;-0.470;2023-02-15T04:33:41;102180.01;;;1.65;38.19
39954;BME280;25631;51.516;-0.470;2023-02-15T04:36:18;102175.25;;;1.63;38.19
39954;BME280;25631;51.516;-0.470;2023-02-15T04:38:54;102170.53;;;1.62;38.26
39954;BME280;25631;51.516;-0.470;2023-02-15T04:41:31;102167.30;;;1.36;38.26
39954;BME280;25631;51.516;-0.470;2023-02-15T04:44:08;102169.98;;;1.31;38.34
39954;BME280;25631;51.516;-0.470;2023-02-15T04:46:44;102169.41;;;1.45;38.39
39954;BME280;25631;51.516;-0.470;2023-02-15T04:49:21;102165.55;;;1.34;38.44
39954;BME280;25631;51.516;-0.470;2023-02-15T04:51:57;102162.41;;;1.38;38.45
39954;BME280;25631;51.516;-0.470;2023-02-15T04:54:34;102154.82;;;1.46;38.42
39954;BME280;25631;51.516;-0.470;2023-02-15T04:57:11;102156.16;;;1.57;38.41
39954;BME280;25631;51.516;-0.470;2023-02-15T04:59:48;102157.66;;;1.66;38.36
39954;BME280;25631;51.516;-0.470;2023-02-15T05:02:25;102158.88;;;1.33;38.25
39954;BME280;25631;51.516;-0.470;2023-02-15T05:05:01;102159.58;;;1.38;38.23
39954;BME280;25631;51.516;-0.470;2023-02-15T05:07:38;102162.98;;;1.65;38.17
39954;BME280;25631;51.516;-0.470;2023-02-15T05:10:14;102157.14;;;1.40;38.16
39954;BME280;25631;51.516;-0.470;2023-02-15T05:12:51;102154.35;;;1.43;38.15
39954;BME280;25631;51.516;-0.470;2023-02-15T05:15:28;102156.13;;;1.23;37.99
39954;BME280;25631;51.516;-0.470;2023-02-15T05:18:05;102153.48;;;1.43;37.94
39954;BME280;25631;51.516;-0.470;2023-02-15T05:20:42;102151.13;;;1.50;37.96
39954;BME280;25631;51.516;-0.470;2023-02-15T05:23:19;102151.33;;;1.26;38.03
39954;BME280;25631;51.516;-0.470;2023-02-15T05:25:55;102150.50;;;1.44;38.12
39954;BME280;25631;51.516;-0.470;2023-02-15T05:28:32;102151.88;;;1.13;38.20
39954;BME280;25631;51.516;-0.470;2023-02-15T05:31:11;102147.76;;;1.27;38.21
39954;BME280;25631;51.516;-0.470;2023-02-15T05:33:49;102149.55;;;1.48;38.17
39954;BME280;25631;51.516;-0.470;2023-02-15T05:36:25;102153.51;;;1.33;38.21
39954;BME280;25631;51.516;-0.470;2023-02-15T05:39:02;102142.51;;;1.46;38.11
39954;BME280;25631;51.516;-0.470;2023-02-15T05:41:38;102136.53;;;1.14;38.21
39954;BME280;25631;51.516;-0.470;2023-02-15T05:44:15;102134.39;;;1.32;38.27
39954;BME280;25631;51.516;-0.470;2023-02-15T05:46:51;102137.38;;;1.22;38.40
39954;BME280;25631;51.516;-0.470;2023-02-15T05:49:28;102138.02;;;1.41;38.36
39954;BME280;25631;51.516;-0.470;2023-02-15T05:52:05;102134.43;;;1.36;38.33
39954;BME280;25631;51.516;-0.470;2023-02-15T05:54:42;102135.84;;;1.29;38.33
39954;BME280;25631;51.516;-0.470;2023-02-15T05:57:18;102132.72;;;1.16;38.30
39954;BME280;25631;51.516;-0.470;2023-02-15T05:59:55;102132.71;;;1.16;38.38
39954;BME280;25631;51.516;-0.470;2023-02-15T06:02:33;102138.82;;;1.11;38.39
39954;BME280;25631;51.516;-0.470;2023-02-15T06:05:10;102131.01;;;1.07;38.26
39954;BME280;25631;51.516;-0.470;2023-02-15T06:07:47;102126.16;;;1.32;38.22
39954;BME280;25631;51.516;-0.470;2023-02-15T06:10:23;102125.03;;;1.44;38.28
39954;BME280;25631;51.516;-0.470;2023-02-15T06:13:00;102124.77;;;1.54;38.47
39954;BME280;25631;51.516;-0.470;2023-02-15T06:15:36;102118.24;;;1.33;38.56
39954;BME280;25631;51.516;-0.470;2023-02-15T06:18:13;102120.62;;;1.26;38.58
39954;BME280;25631;51.516;-0.470;2023-02-15T06:20:49;102121.94;;;1.46;38.63
39954;BME280;25631;51.516;-0.470;2023-02-15T06:23:26;102124.52;;;1.04;38.74
39954;BME280;25631;51.516;-0.470;2023-02-15T06:26:02;102121.28;;;1.13;38.67
39954;BME280;25631;51.516;-0.470;2023-02-15T06:28:39;102117.19;;;1.38;38.76
39954;BME280;25631;51.516;-0.470;2023-02-15T06:31:16;102115.05;;;1.26;38.85
39954;BME280;25631;51.516;-0.470;2023-02-15T06:33:53;102112.51;;;1.28;38.93
39954;BME280;25631;51.516;-0.470;2023-02-15T06:36:30;102116.48;;;1.05;38.90
39954;BME280;25631;51.516;-0.470;2023-02-15T06:39:07;102113.10;;;1.28;38.90
39954;BME280;25631;51.516;-0.470;2023-02-15T06:41:43;102116.68;;;0.78;38.90
39954;BME280;25631;51.516;-0.470;2023-02-15T06:44:20;102124.76;;;1.26;38.77
39954;BME280;25631;51.516;-0.470;2023-02-15T06:46:56;102130.69;;;1.11;38.79
39954;BME280;25631;51.516;-0.470;2023-02-15T06:49:33;102133.33;;;0.81;38.86
39954;BME280;25631;51.516;-0.470;2023-02-15T06:52:10;102138.02;;;0.96;38.96
39954;BME280;25631;51.516;-0.470;2023-02-15T06:54:46;102140.46;;;0.78;39.15
39954;BME280;25631;51.516;-0.470;2023-02-15T06:57:23;102139.85;;;0.96;39.21
39954;BME280;25631;51.516;-0.470;2023-02-15T07:00:00;102139.93;;;0.98;39.28
39954;BME280;25631;51.516;-0.470;2023-02-15T07:02:36;102139.97;;;0.88;39.35
39954;BME280;25631;51.516;-0.470;2023-02-15T07:05:13;102143.76;;;1.00;39.37
39954;BME280;25631;51.516;-0.470;2023-02-15T07:07:50;102145.54;;;0.93;39.41
39954;BME280;25631;51.516;-0.470;2023-02-15T07:10:27;102143.61;;;1.04;39.44
39954;BME280;25631;51.516;-0.470;2023-02-15T07:13:04;102138.39;;;0.71;39.40
39954;BME280;25631;51.516;-0.470;2023-02-15T07:15:41;102138.83;;;0.91;39.32
39954;BME280;25631;51.516;-0.470;2023-02-15T07:18:17;102140.57;;;0.86;39.23
39954;BME280;25631;51.516;-0.470;2023-02-15T07:20:54;102142.22;;;0.80;39.33
39954;BME280;25631;51.516;-0.470;2023-02-15T07:23:30;102138.11;;;0.96;39.45
39954;BME280;25631;51.516;-0.470;2023-02-15T07:26:07;102134.59;;;0.90;39.56
39954;BME280;25631;51.516;-0.470;2023-02-15T07:28:44;102131.97;;;0.72;39.57
39954;BME280;25631;51.516;-0.470;2023-02-15T07:31:20;102136.57;;;0.65;39.64
39954;BME280;25631;51.516;-0.470;2023-02-15T07:33:57;102137.58;;;0.82;39.72
39954;BME280;25631;51.516;-0.470;2023-02-15T07:36:34;102142.32;;;0.83;39.84
39954;BME280;25631;51.516;-0.470;2023-02-15T07:39:10;102147.91;;;0.96;39.98
39954;BME280;25631;51.516;-0.470;2023-02-15T07:41:47;102150.05;;;0.96;40.05
39954;BME280;25631;51.516;-0.470;2023-02-15T07:44:23;102154.09;;;0.97;40.05
39954;BME280;25631;51.516;-0.470;2023-02-15T07:47:00;102156.40;;;1.27;40.04
39954;BME280;25631;51.516;-0.470;2023-02-15T07:49:36;102155.01;;;1.39;40.03
39954;BME280;25631;51.516;-0.470;2023-02-15T07:52:13;102149.53;;;1.15;39.95
39954;BME280;25631;51.516;-0.470;2023-02-15T07:54:49;102151.24;;;1.38;39.97
39954;BME280;25631;51.516;-0.470;2023-02-15T07:57:26;102148.07;;;1.58;39.93
39954;BME280;25631;51.516;-0.470;2023-02-15T08:00:03;102146.46;;;1.55;39.84
39954;BME280;25631;51.516;-0.470;2023-02-15T08:02:40;102150.47;;;1.28;39.75
39954;BME280;25631;51.516;-0.470;2023-02-15T08:05:17;102150.23;;;1.65;39.59
39954;BME280;25631;51.516;-0.470;2023-02-15T08:07:53;102151.31;;;1.42;39.49
39954;BME280;25631;51.516;-0.470;2023-02-15T08:10:30;102147.04;;;1.22;39.41
39954;BME280;25631;51.516;-0.470;2023-02-15T08:13:07;102148.15;;;1.42;39.44
39954;BME280;25631;51.516;-0.470;2023-02-15T08:15:48;102152.67;;;1.42;39.48
39954;BME280;25631;51.516;-0.470;2023-02-15T08:18:25;102153.28;;;1.44;39.46
39954;BME280;25631;51.516;-0.470;2023-02-15T08:21:01;102150.43;;;1.60;39.49
39954;BME280;25631;51.516;-0.470;2023-02-15T08:23:38;102150.21;;;1.45;39.58
39954;BME280;25631;51.516;-0.470;2023-02-15T08:26:15;102145.89;;;1.71;39.59
39954;BME280;25631;51.516;-0.470;2023-02-15T08:28:51;102147.07;;;1.62;39.51
39954;BME280;25631;51.516;-0.470;2023-02-15T08:31:28;102147.57;;;1.49;39.55
39954;BME280;25631;51.516;-0.470;2023-02-15T08:34:05;102145.23;;;1.30;39.59
39954;BME280;25631;51.516;-0.470;2023-02-15T08:36:42;102136.75;;;1.77;39.73
39954;BME280;25631;51.516;-0.470;2023-02-15T08:39:20;102137.41;;;1.84;39.81
39954;BME280;25631;51.516;-0.470;2023-02-15T08:41:56;102130.23;;;1.86;39.88
39954;BME280;25631;51.516;-0.470;2023-02-15T08:44:33;102129.90;;;1.90;39.96
39954;BME280;25631;51.516;-0.470;2023-02-15T08:47:10;102131.61;;;2.01;40.02
39954;BME280;25631;51.516;-0.470;2023-02-15T08:49:46;102130.51;;;1.93;40.07
39954;BME280;25631;51.516;-0.470;2023-02-15T08:52:23;102133.94;;;2.29;40.08
39954;BME280;25631;51.516;-0.470;2023-02-15T08:54:59;102138.45;;;2.29;40.18
39954;BME280;25631;51.516;-0.470;2023-02-15T08:57:36;102137.68;;;2.13;40.31
39954;BME280;25631;51.516;-0.470;2023-02-15T09:00:13;102137.63;;;2.31;40.30
39954;BME280;25631;51.516;-0.470;2023-02-15T09:02:50;102139.11;;;2.16;40.35
39954;BME280;25631;51.516;-0.470;2023-02-15T09:05:27;102137.16;;;2.58;40.44
39954;BME280;25631;51.516;-0.470;2023-02-15T09:08:04;102143.69;;;2.91;40.59
39954;BME280;25631;51.516;-0.470;2023-02-15T09:10:41;102142.23;;;2.43;40.78
39954;BME280;25631;51.516;-0.470;2023-02-15T09:13:17;102142.92;;;2.85;40.90
39954;BME280;25631;51.516;-0.470;2023-02-15T09:15:59;102139.67;;;3.14;41.04
39954;BME280;25631;51.516;-0.470;2023-02-15T09:18:38;102134.76;;;2.97;41.25
39954;BME280;25631;51.516;-0.470;2023-02-15T09:21:17;102130.54;;;3.11;41.82
39954;BME280;25631;51.516;-0.470;2023-02-15T09:23:57;102128.52;;;2.98;43.43
39954;BME280;25631;51.516;-0.470;2023-02-15T09:26:37;102128.04;;;3.09;44.14
39954;BME280;25631;51.516;-0.470;2023-02-15T09:29:14;102131.59;;;3.17;45.34
39954;BME280;25631;51.516;-0.470;2023-02-15T09:31:51;102133.94;;;3.19;45.06
39954;BME280;25631;51.516;-0.470;2023-02-15T09:34:28;102133.96;;;3.42;45.12
39954;BME280;25631;51.516;-0.470;2023-02-15T09:37:05;102128.40;;;3.62;45.23
39954;BME280;25631;51.516;-0.470;2023-02-15T09:39:43;102126.78;;;3.55;45.52
39954;BME280;25631;51.516;-0.470;2023-02-15T09:42:43;102126.24;;;3.69;45.65
39954;BME280;25631;51.516;-0.470;2023-02-15T09:45:32;102120.88;;;3.35;45.78
39954;BME280;25631;51.516;-0.470;2023-02-15T09:48:25;102116.83;;;3.70;45.66
39954;BME280;25631;51.516;-0.470;2023-02-15T09:51:24;102124.06;;;3.42;45.63
39954;BME280;25631;51.516;-0.470;2023-02-15T09:54:15;102125.42;;;3.59;45.57
39954;BME280;25631;51.516;-0.470;2023-02-15T09:56:57;102126.61;;;3.76;45.36
39954;BME280;25631;51.516;-0.470;2023-02-15T09:59:38;102126.36;;;3.73;45.40
39954;BME280;25631;51.516;-0.470;2023-02-15T10:02:29;102120.48;;;4.05;45.33
39954;BME280;25631;51.516;-0.470;2023-02-15T10:05:19;102124.50;;;3.83;45.32
39954;BME280;25631;51.516;-0.470;2023-02-15T10:08:21;102127.27;;;3.93;45.42
39954;BME280;25631;51.516;-0.470;2023-02-15T10:11:10;102132.98;;;3.88;45.42
39954;BME280;25631;51.516;-0.470;2023-02-15T10:14:01;102128.91;;;3.74;45.58
39954;BME280;25631;51.516;-0.470;2023-02-15T10:16:52;102128.13;;;3.77;45.40
39954;BME280;25631;51.516;-0.470;2023-02-15T10:19:39;102133.72;;;4.34;45.21
39954;BME280;25631;51.516;-0.470;2023-02-15T10:22:27;102142.97;;;4.26;45.21
39954;BME280;25631;51.516;-0.470;2023-02-15T10:25:20;102138.59;;;4.19;44.90
39954;BME280;25631;51.516;-0.470;2023-02-15T10:28:05;102137.67;;;4.43;44.84
39954;BME280;25631;51.516;-0.470;2023-02-15T10:30:47;102132.96;;;4.69;44.69
39954;BME280;25631;51.516;-0.470;2023-02-15T10:33:37;102125.67;;;4.75;44.78
39954;BME280;25631;51.516;-0.470;2023-02-15T10:36:27;102123.96;;;4.99;44.61
39954;BME280;25631;51.516;-0.470;2023-02-15T10:39:16;102122.94;;;4.87;44.56
39954;BME280;25631;51.516;-0.470;2023-02-15T10:42:06;102128.36;;;5.19;44.40
39954;BME280;25631;51.516;-0.470;2023-02-15T10:44:56;102130.70;;;4.74;44.38
39954;BME280;25631;51.516;-0.470;2023-02-15T10:47:48;102127.07;;;4.98;44.34
39954;BME280;25631;51.516;-0.470;2023-02-15T10:50:36;102122.46;;;5.05;44.17
39954;BME280;25631;51.516;-0.470;2023-02-15T10:53:28;102120.44;;;5.08;44.20
39954;BME280;25631;51.516;-0.470;2023-02-15T10:56:12;102117.53;;;5.06;44.11
39954;BME280;25631;51.516;-0.470;2023-02-15T10:59:06;102109.93;;;4.93;44.17
39954;BME280;25631;51.516;-0.470;2023-02-15T11:01:53;102107.48;;;5.17;44.08
39954;BME280;25631;51.516;-0.470;2023-02-15T11:04:40;102103.28;;;5.32;44.07
39954;BME280;25631;51.516;-0.470;2023-02-15T11:07:21;102099.30;;;5.48;44.02
39954;BME280;25631;51.516;-0.470;2023-02-15T11:10:07;102100.51;;;5.55;43.99
39954;BME280;25631;51.516;-0.470;2023-02-15T11:12:50;102090.34;;;5.69;43.98
39954;BME280;25631;51.516;-0.470;2023-02-15T11:15:32;102082.93;;;5.71;44.04
39954;BME280;25631;51.516;-0.470;2023-02-15T11:18:14;102078.00;;;5.77;44.01
39954;BME280;25631;51.516;-0.470;2023-02-15T11:20:55;102080.52;;;5.84;43.97
39954;BME280;25631;51.516;-0.470;2023-02-15T11:23:35;102070.30;;;6.31;43.77
39954;BME280;25631;51.516;-0.470;2023-02-15T11:26:14;102063.42;;;6.25;43.65
39954;BME280;25631;51.516;-0.470;2023-02-15T11:28:58;102074.07;;;6.31;43.52
39954;BME280;25631;51.516;-0.470;2023-02-15T11:31:42;102081.07;;;6.58;43.40
39954;BME280;25631;51.516;-0.470;2023-02-15T11:34:24;102077.96;;;6.47;43.21
39954;BME280;25631;51.516;-0.470;2023-02-15T11:37:07;102076.09;;;6.79;42.97
39954;BME280;25631;51.516;-0.470;2023-02-15T11:39:45;102072.68;;;6.64;42.89
39954;BME280;25631;51.516;-0.470;2023-02-15T11:42:23;102078.06;;;7.01;42.77
39954;BME280;25631;51.516;-0.470;2023-02-15T11:45:07;102069.82;;;6.94;42.56
39954;BME280;25631;51.516;-0.470;2023-02-15T11:47:54;102068.09;;;7.23;42.19
39954;BME280;25631;51.516;-0.470;2023-02-15T11:50:32;102069.67;;;7.29;41.98
39954;BME280;25631;51.516;-0.470;2023-02-15T11:53:12;102062.79;;;7.44;41.96
39954;BME280;25631;51.516;-0.470;2023-02-15T11:55:51;102057.79;;;7.33;41.45
39954;BME280;25631;51.516;-0.470;2023-02-15T11:58:31;102051.13;;;7.60;41.08
39954;BME280;25631;51.516;-0.470;2023-02-15T12:01:13;102047.67;;;7.59;40.96
39954;BME280;25631;51.516;-0.470;2023-02-15T12:03:52;102038.05;;;8.04;40.94
39954;BME280;25631;51.516;-0.470;2023-02-15T12:06:33;102032.03;;;7.95;40.52
39954;BME280;25631;51.516;-0.470;2023-02-15T12:09:20;102027.43;;;8.09;40.60
39954;BME280;25631;51.516;-0.470;2023-02-15T12:12:20;102023.88;;;8.27;40.31
39954;BME280;25631;51.516;-0.470;2023-02-15T12:14:58;102025.96;;;8.31;40.22
39954;BME280;25631;51.516;-0.470;2023-02-15T12:17:39;102028.59;;;8.29;40.03
39954;BME280;25631;51.516;-0.470;2023-02-15T12:20:25;102030.08;;;8.58;39.66
39954;BME280;25631;51.516;-0.470;2023-02-15T12:23:11;102026.05;;;8.64;39.51
39954;BME280;25631;51.516;-0.470;2023-02-15T12:25:51;102020.89;;;9.24;39.32
39954;BME280;25631;51.516;-0.470;2023-02-15T12:28:33;102020.10;;;9.19;39.11
39954;BME280;25631;51.516;-0.470;2023-02-15T12:31:23;102021.07;;;9.58;38.56
39954;BME280;25631;51.516;-0.470;2023-02-15T12:34:03;102020.91;;;9.46;38.14
39954;BME280;25631;51.516;-0.470;2023-02-15T12:36:47;102015.23;;;9.51;38.23
39954;BME280;25631;51.516;-0.470;2023-02-15T12:39:26;102014.90;;;9.68;37.84
39954;BME280;25631;51.516;-0.470;2023-02-15T12:42:08;102012.12;;;9.89;37.78
39954;BME280;25631;51.516;-0.470;2023-02-15T12:44:57;102013.89;;;10.33;37.42
39954;BME280;25631;51.516;-0.470;2023-02-15T12:47:34;102005.27;;;9.95;37.24
39954;BME280;25631;51.516;-0.470;2023-02-15T12:50:14;101996.91;;;10.03;37.15
39954;BME280;25631;51.516;-0.470;2023-02-15T12:50:24;101998.52;;;10.14;37.21
39954;BME280;25631;51.516;-0.470;2023-02-15T12:53:07;101986.42;;;10.27;37.07
39954;BME280;25631;51.516;-0.470;2023-02-15T12:55:54;101983.33;;;10.42;36.53
39954;BME280;25631;51.516;-0.470;2023-02-15T12:58:32;101986.61;;;10.64;36.36
39954;BME280;25631;51.516;-0.470;2023-02-15T13:01:12;101986.62;;;10.80;36.06
39954;BME280;25631;51.516;-0.470;2023-02-15T13:03:56;101985.65;;;10.60;35.52
39954;BME280;25631;51.516;-0.470;2023-02-15T13:06:35;101975.21;;;10.95;35.33
39954;BME280;25631;51.516;-0.470;2023-02-15T13:09:16;101972.45;;;11.19;35.37
39954;BME280;25631;51.516;-0.470;2023-02-15T13:11:54;101973.87;;;11.13;35.05
39954;BME280;25631;51.516;-0.470;2023-02-15T13:14:31;101972.70;;;11.57;35.01
39954;BME280;25631;51.516;-0.470;2023-02-15T13:17:10;101971.42;;;11.81;34.54
39954;BME280;25631;51.516;-0.470;2023-02-15T13:19:51;101969.78;;;11.66;34.44
39954;BME280;25631;51.516;-0.470;2023-02-15T13:22:36;101967.71;;;12.06;33.74
39954;BME280;25631;51.516;-0.470;2023-02-15T13:25:18;101969.50;;;11.74;33.35
39954;BME280;25631;51.516;-0.470;2023-02-15T13:28:01;101950.59;;;11.73;33.04
39954;BME280;25631;51.516;-0.470;2023-02-15T13:30:43;101949.37;;;11.96;33.19
39954;BME280;25631;51.516;-0.470;2023-02-15T13:33:26;101948.66;;;12.06;32.59
39954;BME280;25631;51.516;-0.470;2023-02-15T13:36:11;101937.59;;;12.17;32.40
39954;BME280;25631;51.516;-0.470;2023-02-15T13:38:58;101937.72;;;12.31;32.02
39954;BME280;25631;51.516;-0.470;2023-02-15T13:41:47;101949.61;;;11.95;32.04
39954;BME280;25631;51.516;-0.470;2023-02-15T13:44:57;101948.07;;;11.91;31.88
39954;BME280;25631;51.516;-0.470;2023-02-15T13:47:45;101944.02;;;11.80;31.75
39954;BME280;25631;51.516;-0.470;2023-02-15T13:50:34;101951.95;;;11.52;31.92
39954;BME280;25631;51.516;-0.470;2023-02-15T13:53:28;101932.19;;;12.20;31.73
39954;BME280;25631;51.516;-0.470;2023-02-15T13:56:17;101932.05;;;12.42;31.72